createdAt,value
2018-02-05T00:01:03.066Z,1.10
2018-02-05T00:03:31.311Z,1.20
2018-02-05T00:05:59.535Z,1.10
2018-02-05T00:08:27.020Z,1.10
2018-02-05T00:10:54.488Z,1.20
2018-02-05T00:13:22.723Z,1.20
2018-02-05T00:15:50.189Z,1.20
2018-02-05T00:18:18.775Z,1.10
2018-02-05T00:20:46.259Z,1.10
2018-02-05T00:23:14.517Z,1.00
2018-02-05T00:25:41.973Z,1.00
2018-02-05T00:28:09.470Z,1.00
2018-02-05T00:30:37.708Z,1.00
2018-02-05T00:33:05.271Z,0.90
2018-02-05T00:35:32.735Z,1.00
2018-02-05T00:38:00.194Z,1.00
2018-02-05T00:40:27.672Z,1.10
2018-02-05T00:42:55.905Z,1.00
2018-02-05T00:45:23.371Z,1.00
2018-02-05T00:47:50.827Z,1.00
2018-02-05T00:50:18.311Z,1.00
2018-02-05T00:52:46.538Z,0.80
2018-02-05T00:55:14.003Z,0.80
2018-02-05T00:57:41.475Z,0.90
2018-02-05T01:00:08.945Z,1.00
2018-02-05T01:02:36.418Z,1.00
2018-02-05T01:05:04.706Z,1.10
2018-02-05T01:07:32.187Z,1.00
2018-02-05T01:09:59.665Z,1.00
2018-02-05T01:12:27.119Z,1.00
2018-02-05T01:14:55.053Z,1.00
2018-02-05T01:17:22.521Z,1.10
2018-02-05T01:19:50.007Z,1.00
2018-02-05T01:22:17.484Z,1.00
2018-02-05T01:24:44.969Z,1.10
2018-02-05T01:27:13.235Z,1.00
2018-02-05T01:29:41.474Z,1.10
2018-02-05T01:32:08.996Z,1.10
2018-02-05T01:34:36.550Z,1.00
2018-02-05T01:37:03.972Z,1.00
2018-02-05T01:39:32.240Z,1.10
2018-02-05T01:41:59.700Z,1.00
2018-02-05T01:44:27.941Z,1.00
2018-02-05T01:46:55.419Z,1.00
2018-02-05T01:49:22.892Z,1.10
2018-02-05T01:51:50.454Z,1.10
2018-02-05T01:54:17.919Z,0.90
2018-02-05T01:56:45.394Z,1.00
2018-02-05T01:59:13.638Z,1.00
2018-02-05T02:01:41.116Z,1.00
2018-02-05T02:04:09.331Z,1.00
2018-02-05T02:06:36.816Z,1.00
2018-02-05T02:09:04.339Z,1.00
2018-02-05T02:11:32.588Z,1.00
2018-02-05T02:14:00.822Z,1.10
2018-02-05T02:16:28.289Z,1.10
2018-02-05T02:18:55.751Z,1.00
2018-02-05T02:21:24.720Z,1.00
2018-02-05T02:23:52.189Z,1.00
2018-02-05T02:26:19.656Z,1.00
2018-02-05T02:28:47.879Z,1.00
2018-02-05T02:31:15.350Z,1.00
2018-02-05T02:33:42.804Z,1.00
2018-02-05T02:36:10.282Z,1.00
2018-02-05T02:38:37.754Z,1.00
2018-02-05T02:41:05.227Z,1.00
2018-02-05T02:43:32.678Z,1.10
2018-02-05T02:46:00.159Z,1.00
2018-02-05T02:48:28.395Z,1.00
2018-02-05T02:50:56.979Z,1.00
2018-02-05T02:53:24.436Z,1.00
2018-02-05T02:55:51.912Z,1.10
2018-02-05T02:58:19.396Z,1.00
2018-02-05T03:00:47.610Z,1.10
2018-02-05T03:03:15.075Z,1.00
2018-02-05T03:05:42.542Z,1.10
2018-02-05T03:08:10.010Z,1.10
2018-02-05T03:10:37.476Z,1.00
2018-02-05T03:13:05.103Z,1.00
2018-02-05T03:15:32.559Z,1.00
2018-02-05T03:18:00.034Z,1.10
2018-02-05T03:20:27.499Z,1.10
2018-02-05T03:22:54.979Z,1.10
2018-02-05T03:25:22.449Z,1.10
2018-02-05T03:27:50.676Z,1.00
2018-02-05T03:30:18.141Z,1.00
2018-02-05T03:32:45.626Z,1.00
2018-02-05T03:35:13.898Z,1.00
2018-02-05T03:37:41.370Z,1.00
2018-02-05T03:40:09.602Z,1.00
2018-02-05T03:42:37.076Z,1.00
2018-02-05T03:45:04.538Z,1.00
2018-02-05T03:47:32.018Z,1.00
2018-02-05T03:50:00.239Z,1.00
2018-02-05T03:52:27.727Z,1.00
2018-02-05T03:54:55.199Z,1.00
2018-02-05T03:57:22.667Z,0.90
2018-02-05T03:59:50.882Z,1.00
2018-02-05T04:02:18.349Z,1.00
2018-02-05T04:04:45.798Z,0.90
2018-02-05T04:07:19.090Z,0.90
2018-02-05T04:09:46.555Z,0.80
2018-02-05T04:12:14.034Z,0.80
2018-02-05T04:14:41.495Z,0.90
2018-02-05T04:17:08.976Z,0.80
2018-02-05T04:19:37.225Z,0.80
2018-02-05T04:22:04.691Z,0.80
2018-02-05T04:24:32.155Z,0.80
2018-02-05T04:26:59.629Z,0.80
2018-02-05T04:29:28.675Z,0.90
2018-02-05T04:31:56.138Z,0.80
2018-02-05T04:34:23.614Z,0.90
2018-02-05T04:36:51.075Z,0.80
2018-02-05T04:39:18.546Z,0.90
2018-02-05T04:41:46.025Z,0.80
2018-02-05T04:44:14.266Z,0.90
2018-02-05T04:46:41.732Z,0.90
2018-02-05T04:49:09.978Z,0.90
2018-02-05T04:51:37.431Z,0.90
2018-02-05T04:54:04.919Z,1.00
2018-02-05T04:56:33.146Z,1.00
2018-02-05T04:59:00.608Z,0.90
2018-02-05T05:01:28.083Z,0.90
2018-02-05T05:03:55.554Z,1.00
2018-02-05T05:06:23.010Z,0.90
2018-02-05T05:08:51.253Z,0.90
2018-02-05T05:11:18.718Z,0.90
2018-02-05T05:13:46.184Z,0.80
2018-02-05T05:16:13.672Z,0.80
2018-02-05T05:18:48.595Z,0.90
2018-02-05T05:21:16.062Z,0.90
2018-02-05T05:23:43.544Z,0.90
2018-02-05T05:26:11.762Z,1.00
2018-02-05T05:28:39.247Z,1.00
2018-02-05T05:31:08.216Z,1.00
2018-02-05T05:33:35.692Z,1.00
2018-02-05T05:36:03.159Z,1.00
2018-02-05T05:38:30.663Z,1.00
2018-02-05T05:40:58.124Z,1.00
2018-02-05T05:43:25.579Z,1.00
2018-02-05T05:45:53.135Z,1.10
2018-02-05T05:48:20.611Z,1.10
2018-02-05T05:50:48.085Z,1.00
2018-02-05T05:53:15.557Z,1.00
2018-02-05T05:55:43.045Z,1.00
2018-02-05T05:58:11.258Z,1.00
2018-02-05T06:00:38.731Z,1.00
2018-02-05T06:03:06.195Z,1.00
2018-02-05T06:05:33.744Z,1.00
2018-02-05T06:08:01.219Z,0.90
2018-02-05T06:10:28.779Z,0.90
2018-02-05T06:12:56.238Z,1.00
2018-02-05T06:15:23.714Z,1.00
2018-02-05T06:17:51.968Z,1.00
2018-02-05T06:20:19.452Z,1.00
2018-02-05T06:22:47.711Z,1.10
2018-02-05T06:25:15.951Z,1.10
2018-02-05T06:27:43.416Z,1.10
2018-02-05T06:30:10.899Z,1.00
2018-02-05T06:32:38.363Z,1.00
2018-02-05T06:35:05.856Z,1.00
2018-02-05T06:37:33.330Z,1.00
2018-02-05T06:40:00.828Z,1.00
2018-02-05T06:42:28.294Z,1.00
2018-02-05T06:44:56.563Z,0.90
2018-02-05T06:47:24.046Z,0.90
2018-02-05T06:49:52.292Z,1.00
2018-02-05T06:52:31.707Z,0.90
2018-02-05T06:55:21.586Z,1.00
2018-02-05T06:57:49.041Z,1.00
2018-02-05T07:00:16.564Z,1.00
2018-02-05T07:02:44.803Z,1.00
2018-02-05T07:05:13.485Z,1.00
2018-02-05T07:07:40.990Z,1.10
2018-02-05T07:10:09.216Z,1.10
2018-02-05T07:12:36.701Z,1.00
2018-02-05T07:15:04.936Z,1.00
2018-02-05T07:17:32.410Z,1.00
2018-02-05T07:20:00.665Z,1.00
2018-02-05T07:22:28.143Z,1.00
2018-02-05T07:24:55.599Z,1.00
2018-02-05T07:27:23.145Z,1.10
2018-02-05T07:29:50.601Z,1.10
2018-02-05T07:32:18.070Z,1.20
2018-02-05T07:34:45.562Z,1.20
2018-02-05T07:37:13.801Z,1.20
2018-02-05T07:39:41.276Z,1.20
2018-02-05T07:42:08.735Z,1.30
2018-02-05T07:44:36.203Z,1.30
2018-02-05T07:47:04.470Z,1.40
2018-02-05T07:49:31.932Z,1.40
2018-02-05T07:52:00.178Z,1.40
2018-02-05T07:54:27.640Z,1.40
2018-02-05T07:56:55.099Z,1.30
2018-02-05T07:59:23.333Z,1.40
2018-02-05T08:01:50.812Z,1.40
2018-02-05T08:04:18.263Z,1.40
2018-02-05T08:06:45.767Z,1.30
2018-02-05T08:09:13.199Z,1.20
2018-02-05T08:11:40.796Z,1.30
2018-02-05T08:14:09.031Z,1.20
2018-02-05T08:16:36.532Z,1.20
2018-02-05T08:19:04.746Z,1.20
2018-02-05T08:21:32.234Z,1.20
2018-02-05T08:23:59.708Z,1.30
2018-02-05T08:26:27.190Z,1.30
2018-02-05T08:28:55.424Z,1.30
2018-02-05T08:31:22.893Z,1.30
2018-02-05T08:33:50.382Z,1.40
2018-02-05T08:36:17.848Z,1.40
2018-02-05T08:38:45.400Z,1.40
2018-02-05T08:41:13.613Z,1.60
2018-02-05T08:43:41.106Z,1.50
2018-02-05T08:46:09.337Z,1.50
2018-02-05T08:48:37.347Z,1.50
2018-02-05T08:51:04.812Z,1.50
2018-02-05T08:53:38.499Z,1.60
2018-02-05T08:56:05.955Z,1.60
2018-02-05T08:58:34.403Z,1.60
2018-02-05T09:01:01.863Z,1.60
2018-02-05T09:03:29.330Z,1.60
2018-02-05T09:05:56.794Z,1.70
2018-02-05T09:08:24.289Z,1.70
2018-02-05T09:10:51.736Z,1.70
2018-02-05T09:13:19.211Z,1.50
2018-02-05T09:15:48.370Z,1.60
2018-02-05T09:18:15.842Z,1.60
2018-02-05T09:20:43.327Z,1.70
2018-02-05T09:23:11.545Z,1.80
2018-02-05T09:25:39.001Z,1.80
2018-02-05T09:28:06.587Z,1.70
2018-02-05T09:30:34.048Z,1.80
2018-02-05T09:33:02.293Z,1.90
2018-02-05T09:35:29.771Z,1.90
2018-02-05T09:37:58.469Z,1.90
2018-02-05T09:40:25.920Z,1.90
2018-02-05T09:42:54.155Z,2.20
2018-02-05T09:45:21.900Z,2.20
2018-02-05T09:47:49.530Z,2.40
2018-02-05T09:50:16.995Z,2.40
2018-02-05T09:52:45.218Z,2.70
2018-02-05T09:55:12.687Z,2.70
2018-02-05T09:57:40.167Z,2.80
2018-02-05T10:00:08.452Z,2.60
2018-02-05T10:02:35.911Z,2.60
2018-02-05T10:05:03.379Z,2.60
2018-02-05T10:07:31.624Z,2.40
2018-02-05T10:09:59.108Z,2.40
2018-02-05T10:12:26.575Z,2.40
2018-02-05T10:14:54.810Z,2.40
2018-02-05T10:17:22.286Z,2.30
2018-02-05T10:19:49.756Z,2.20
2018-02-05T10:22:19.427Z,2.10
2018-02-05T10:24:46.891Z,2.10
2018-02-05T10:27:14.363Z,2.10
2018-02-05T10:29:41.837Z,2.00
2018-02-05T10:32:10.101Z,2.00
2018-02-05T10:34:37.568Z,2.10
2018-02-05T10:37:06.340Z,2.40
2018-02-05T10:39:33.822Z,2.40
2018-02-05T10:42:02.051Z,2.70
2018-02-05T10:44:31.162Z,2.90
2018-02-05T10:46:58.623Z,2.90
2018-02-05T10:49:26.090Z,3.10
2018-02-05T10:51:53.559Z,3.20
2018-02-05T10:54:21.799Z,3.20
2018-02-05T10:56:49.271Z,3.20
2018-02-05T10:59:16.735Z,3.10
2018-02-05T11:01:45.711Z,3.30
2018-02-05T11:04:13.180Z,3.30
2018-02-05T11:06:40.741Z,3.30
2018-02-05T11:09:08.207Z,3.20
2018-02-05T11:11:35.674Z,3.20
2018-02-05T11:14:03.127Z,3.10
2018-02-05T11:16:31.370Z,2.80
2018-02-05T11:18:58.836Z,2.80
2018-02-05T11:21:26.308Z,2.80
2018-02-05T11:23:53.770Z,3.10
2018-02-05T11:26:21.227Z,3.10
2018-02-05T11:28:48.710Z,3.10
2018-02-05T11:31:16.931Z,3.20
2018-02-05T11:34:03.665Z,3.20
2018-02-05T11:36:31.133Z,3.30
2018-02-05T11:38:59.390Z,3.50
2018-02-05T11:41:26.862Z,3.40
2018-02-05T11:43:54.327Z,3.40
2018-02-05T11:46:21.804Z,3.60
2018-02-05T11:48:49.266Z,3.40
2018-02-05T11:51:17.647Z,3.40
2018-02-05T11:53:45.115Z,3.30
2018-02-05T11:56:12.577Z,3.10
2018-02-05T11:58:40.048Z,3.00
2018-02-05T12:01:07.527Z,3.00
2018-02-05T12:03:35.009Z,3.10
2018-02-05T12:06:02.466Z,3.40
2018-02-05T12:08:30.710Z,3.80
2018-02-05T12:10:58.190Z,3.80
2018-02-05T12:13:25.645Z,3.80
2018-02-05T12:15:53.116Z,3.90
2018-02-05T12:18:21.356Z,4.20
2018-02-05T12:20:48.839Z,4.20
2018-02-05T12:23:17.101Z,4.30
2018-02-05T12:38:51.996Z,4.30
2018-02-05T12:41:19.464Z,4.30
2018-02-05T12:43:46.951Z,4.10
2018-02-05T12:46:14.416Z,4.10
2018-02-05T12:48:42.663Z,3.80
2018-02-05T12:51:10.128Z,3.80
2018-02-05T12:53:37.600Z,3.80
2018-02-05T12:56:05.833Z,3.70
2018-02-05T12:58:36.715Z,3.70
2018-02-05T13:01:21.994Z,3.60
2018-02-05T13:03:51.048Z,3.60
2018-02-05T13:06:22.305Z,3.50
2018-02-05T13:08:49.791Z,3.60
2018-02-05T13:11:17.268Z,3.60
2018-02-05T13:13:45.512Z,3.50
2018-02-05T13:16:12.971Z,3.50
2018-02-05T13:18:40.430Z,3.50
2018-02-05T13:21:09.406Z,3.60
2018-02-05T13:23:36.877Z,3.60
2018-02-05T13:26:04.435Z,3.60
2018-02-05T13:28:32.696Z,3.70
2018-02-05T13:31:00.155Z,3.70
2018-02-05T13:33:27.614Z,3.70
2018-02-05T13:35:55.089Z,3.70
2018-02-05T13:38:22.569Z,3.80
2018-02-05T13:40:50.815Z,3.70
2018-02-05T13:43:18.277Z,3.70
2018-02-05T13:45:45.746Z,3.70
2018-02-05T13:48:13.206Z,3.70
2018-02-05T13:50:41.435Z,3.60
2018-02-05T13:53:08.924Z,3.60
2018-02-05T13:55:36.399Z,3.60
2018-02-05T13:58:04.634Z,3.50
2018-02-05T14:00:32.099Z,3.50
2018-02-05T14:02:59.582Z,3.40
2018-02-05T14:05:27.131Z,3.40
2018-02-05T14:07:54.607Z,3.40
2018-02-05T14:10:22.845Z,3.50
2018-02-05T14:12:51.098Z,3.50
2018-02-05T14:15:18.564Z,3.50
2018-02-05T14:17:46.048Z,3.50
2018-02-05T14:20:13.511Z,3.40
2018-02-05T14:22:41.005Z,3.30
2018-02-05T14:25:09.240Z,3.40
2018-02-05T14:27:36.706Z,3.30
2018-02-05T14:30:04.190Z,3.40
2018-02-05T14:32:32.411Z,3.30
2018-02-05T14:34:59.915Z,3.30
2018-02-05T14:37:28.131Z,3.30
2018-02-05T14:39:55.625Z,3.30
2018-02-05T14:42:23.078Z,3.30
2018-02-05T14:44:50.545Z,3.20
2018-02-05T14:47:18.787Z,3.20
2018-02-05T14:49:46.252Z,3.20
2018-02-05T14:52:13.729Z,3.20
2018-02-05T14:54:41.212Z,3.20
2018-02-05T14:57:09.435Z,3.20
2018-02-05T14:59:36.916Z,3.20
2018-02-05T15:02:05.904Z,3.20
2018-02-05T15:04:33.374Z,3.20
2018-02-05T15:07:00.839Z,3.20
2018-02-05T15:09:28.307Z,3.10
2018-02-05T15:11:56.542Z,3.10
2018-02-05T15:14:24.020Z,3.10
2018-02-05T15:16:51.486Z,3.20
2018-02-05T15:19:19.736Z,3.10
2018-02-05T15:21:47.186Z,3.10
2018-02-05T15:24:14.655Z,3.10
2018-02-05T15:26:42.214Z,3.10
2018-02-05T15:29:09.670Z,3.10
2018-02-05T15:31:37.844Z,3.10
2018-02-05T15:34:05.313Z,3.10
2018-02-05T15:36:32.795Z,3.00
2018-02-05T15:39:01.011Z,2.90
2018-02-05T15:41:29.039Z,2.80
2018-02-05T15:43:57.254Z,2.70
2018-02-05T15:46:24.734Z,2.70
2018-02-05T15:48:52.191Z,2.70
2018-02-05T15:51:19.657Z,2.60
2018-02-05T15:53:47.124Z,2.50
2018-02-05T15:56:14.595Z,2.40
2018-02-05T15:58:42.850Z,2.30
2018-02-05T16:01:10.313Z,2.30
2018-02-05T16:03:38.539Z,2.30
2018-02-05T16:06:06.031Z,2.30
2018-02-05T16:08:33.567Z,2.20
2018-02-05T16:11:01.756Z,2.20
2018-02-05T16:13:29.235Z,2.10
2018-02-05T16:15:56.741Z,2.10
2018-02-05T16:18:24.200Z,2.10
2018-02-05T16:20:58.946Z,2.00
2018-02-05T16:23:26.399Z,2.00
2018-02-05T16:25:53.898Z,2.00
2018-02-05T16:28:21.377Z,1.90
2018-02-05T16:30:49.623Z,1.90
2018-02-05T16:33:17.100Z,1.90
2018-02-05T16:35:45.399Z,1.80
2018-02-05T16:38:12.855Z,1.80
2018-02-05T16:40:41.108Z,1.80
2018-02-05T16:43:09.340Z,1.80
2018-02-05T16:45:36.848Z,1.80
2018-02-05T16:48:05.087Z,1.70
2018-02-05T16:50:32.538Z,1.70
2018-02-05T16:53:00.016Z,1.70
2018-02-05T16:55:28.259Z,1.60
2018-02-05T16:57:55.727Z,1.60
2018-02-05T17:00:23.203Z,1.60
2018-02-05T17:02:50.696Z,1.60
2018-02-05T17:05:18.933Z,1.60
2018-02-05T17:07:46.420Z,1.60
2018-02-05T17:10:14.652Z,1.60
2018-02-05T17:12:42.118Z,1.50
2018-02-05T17:15:09.617Z,1.60
2018-02-05T17:17:37.872Z,1.50
2018-02-05T17:20:05.343Z,1.50
2018-02-05T17:22:33.583Z,1.50
2018-02-05T17:25:02.280Z,1.50
2018-02-05T17:27:29.761Z,1.50
2018-02-05T17:29:57.995Z,1.50
2018-02-05T17:32:25.481Z,1.50
2018-02-05T17:35:00.482Z,1.40
2018-02-05T17:37:27.978Z,1.40
2018-02-05T17:39:55.454Z,1.40
2018-02-05T17:42:23.694Z,1.40
2018-02-05T17:44:51.148Z,1.40
2018-02-05T17:47:18.723Z,1.40
2018-02-05T17:49:46.201Z,1.40
2018-02-05T17:52:14.435Z,1.30
2018-02-05T17:54:41.911Z,1.30
2018-02-05T17:57:09.407Z,1.40
2018-02-05T17:59:37.643Z,1.40
2018-02-05T18:02:05.135Z,1.40
2018-02-05T18:04:33.364Z,1.30
2018-02-05T18:07:00.854Z,1.30
2018-02-05T18:09:29.086Z,1.40
2018-02-05T18:11:56.558Z,1.30
2018-02-05T18:14:24.040Z,1.30
2018-02-05T18:16:51.499Z,1.30
2018-02-05T18:19:18.991Z,1.30
2018-02-05T18:21:46.465Z,1.30
2018-02-05T18:24:13.947Z,1.30
2018-02-05T18:26:41.413Z,1.30
2018-02-05T18:29:08.883Z,1.20
2018-02-05T18:31:36.351Z,1.20
2018-02-05T18:34:04.592Z,1.10
2018-02-05T18:36:32.055Z,1.10
2018-02-05T18:38:59.532Z,1.10
2018-02-05T18:41:26.995Z,1.20
2018-02-05T18:43:55.231Z,1.20
2018-02-05T18:46:22.698Z,1.20
2018-02-05T18:48:50.190Z,1.10
2018-02-05T18:51:18.422Z,1.10
2018-02-05T18:53:45.899Z,1.10
2018-02-05T18:56:13.368Z,1.10
2018-02-05T18:58:41.594Z,1.10
2018-02-05T19:01:09.052Z,1.00
2018-02-05T19:03:36.513Z,1.10
2018-02-05T19:06:03.983Z,1.00
2018-02-05T19:11:25.059Z,0.90
2018-02-05T19:13:53.308Z,0.80
2018-02-05T19:16:20.769Z,0.80
2018-02-05T19:18:48.250Z,0.90
2018-02-05T19:21:16.505Z,0.90
2018-02-05T19:23:43.986Z,0.90
2018-02-05T19:26:12.228Z,0.90
2018-02-05T19:28:39.704Z,0.90
2018-02-05T19:33:41.780Z,0.80
2018-02-05T19:36:09.283Z,0.80
2018-02-05T19:38:36.781Z,0.80
2018-02-05T19:41:04.268Z,0.80
2018-02-05T19:43:32.503Z,0.80
2018-02-05T19:46:00.032Z,0.80
2018-02-05T19:48:33.310Z,0.70
2018-02-05T19:51:01.556Z,0.70
2018-02-05T19:53:29.016Z,0.70
2018-02-05T19:55:56.493Z,0.80
2018-02-05T19:58:24.720Z,0.70
2018-02-05T20:00:52.212Z,0.70
2018-02-05T20:03:19.693Z,0.70
2018-02-05T20:05:47.920Z,0.70
2018-02-05T20:08:16.508Z,0.70
2018-02-05T20:10:44.031Z,0.70
2018-02-05T20:13:12.278Z,0.60
2018-02-05T20:15:40.562Z,0.60
2018-02-05T20:18:08.079Z,0.60
2018-02-05T20:20:35.580Z,0.60
2018-02-05T20:23:03.820Z,0.50
2018-02-05T20:25:31.292Z,0.50
2018-02-05T20:27:59.510Z,0.50
2018-02-05T20:30:26.991Z,0.50
2018-02-05T20:32:54.447Z,0.50
2018-02-05T20:35:21.937Z,0.40
2018-02-05T20:37:49.434Z,0.40
2018-02-05T20:40:16.931Z,0.50
2018-02-05T20:42:44.396Z,0.50
2018-02-05T20:45:11.872Z,0.50
2018-02-05T20:47:40.152Z,0.50
2018-02-05T20:50:08.396Z,0.60
2018-02-05T20:52:35.865Z,0.60
2018-02-05T20:55:03.339Z,0.60
2018-02-05T20:57:31.555Z,0.70
2018-02-05T20:59:59.046Z,0.60
2018-02-05T21:02:26.546Z,0.60
2018-02-05T21:04:53.999Z,0.70
2018-02-05T21:07:22.244Z,0.60
2018-02-05T21:09:49.718Z,0.60
2018-02-05T21:12:17.178Z,0.60
2018-02-05T21:14:45.411Z,0.70
2018-02-05T21:17:12.927Z,0.70
2018-02-05T21:19:41.147Z,0.60
2018-02-05T21:22:08.619Z,0.50
2018-02-05T21:24:36.125Z,0.50
2018-02-05T21:27:04.355Z,0.50
2018-02-05T21:29:31.799Z,0.50
2018-02-05T21:31:59.312Z,0.60
2018-02-05T21:34:27.544Z,0.60
2018-02-05T21:36:55.071Z,0.60
2018-02-05T21:39:22.541Z,0.70
2018-02-05T21:41:50.069Z,0.70
2018-02-05T21:44:17.569Z,0.70
2018-02-05T21:46:45.027Z,0.70
2018-02-05T21:49:12.479Z,0.70
2018-02-05T21:51:39.954Z,0.70
2018-02-05T21:54:07.409Z,0.70
2018-02-05T21:56:34.926Z,0.70
2018-02-05T21:59:02.392Z,0.70
2018-02-05T22:01:29.883Z,0.70
2018-02-05T22:03:57.330Z,0.80
2018-02-05T22:06:24.809Z,0.70
2018-02-05T22:08:53.072Z,0.70
2018-02-05T22:11:20.553Z,0.70
2018-02-05T22:13:48.081Z,0.80
2018-02-05T22:16:15.502Z,0.80
2018-02-05T22:18:42.982Z,0.70
2018-02-05T22:21:10.485Z,0.70
2018-02-05T22:23:37.950Z,0.70
2018-02-05T22:26:06.181Z,0.80
2018-02-05T22:41:22.579Z,0.80
2018-02-05T22:43:50.059Z,0.80
2018-02-05T22:46:18.284Z,0.80
2018-02-05T22:48:45.758Z,0.80
2018-02-05T22:51:13.236Z,0.70
2018-02-05T22:53:40.707Z,0.60
2018-02-05T22:56:08.930Z,0.70
2018-02-05T22:58:36.403Z,0.70
2018-02-05T23:01:03.879Z,0.70
2018-02-05T23:03:31.356Z,0.70
2018-02-05T23:05:59.613Z,0.80
2018-02-05T23:08:27.076Z,0.80
2018-02-05T23:10:54.668Z,0.80
2018-02-05T23:13:22.141Z,0.80
2018-02-05T23:15:49.603Z,0.80
2018-02-05T23:18:17.077Z,0.80
2018-02-05T23:20:44.540Z,0.80
2018-02-05T23:23:12.016Z,0.80
2018-02-05T23:25:39.467Z,0.80
2018-02-05T23:28:06.941Z,0.70
2018-02-05T23:30:34.404Z,0.80
2018-02-05T23:33:02.647Z,0.70
2018-02-05T23:35:30.124Z,0.70
2018-02-05T23:37:57.600Z,0.80
2018-02-05T23:40:25.059Z,0.80
2018-02-05T23:42:53.292Z,0.70
2018-02-05T23:45:20.858Z,0.70
2018-02-05T23:47:48.343Z,0.70
2018-02-05T23:50:16.588Z,0.70
2018-02-05T23:52:44.072Z,0.70
2018-02-05T23:55:11.534Z,0.70
2018-02-05T23:57:38.999Z,0.70
